Time;durP1;ratioP1;P1;durP2;ratioP2;P2;SDS_P1;SDS_P2;PMS_P1;PMS_P2;Temp;Humidity;BMP_temperature;BMP_pressure;BME280_temperature;BME280_humidity;BME280_pressure;Samples;Min_cycle;Max_cycle;Signal;HPM_P1;HPM_P2
2022/06/04 00:01:52;;;;;;;0.70;0.70;;;20.10;84.50;;;20.38;68.06;94937.31;4713673;30;20266;-79
2022/06/04 00:04:19;;;;;;;0.40;0.40;;;20.10;84.90;;;20.37;68.38;94939.16;4699237;30;20287;-79
2022/06/04 00:06:46;;;;;;;0.32;0.32;;;20.10;85.00;;;20.36;68.20;94937.56;4707785;30;20278;-80
2022/06/04 00:09:15;;;;;;;0.40;0.40;;;20.10;85.20;;;20.36;68.21;94942.09;4705667;30;20711;-80
2022/06/04 00:17:34;;;;;;;0.40;0.40;;;20.10;85.80;;;20.27;69.34;94945.19;4685414;30;20312;-79
2022/06/04 00:20:02;;;;;;;0.40;0.40;;;20.00;86.00;;;20.26;69.60;94940.94;4679251;30;20331;-79
2022/06/04 00:22:29;;;;;;;0.40;0.40;;;20.00;86.30;;;20.25;69.99;94946.50;4702132;30;20207;-79
2022/06/04 00:24:57;;;;;;;0.40;0.40;;;20.00;86.20;;;20.22;69.87;94934.50;4709778;30;20231;-79
2022/06/04 00:27:24;;;;;;;0.40;0.40;;;20.00;86.50;;;20.20;70.08;94947.28;4695843;30;20215;-80
2022/06/04 00:29:51;;;;;;;0.40;0.40;;;20.00;86.60;;;20.21;69.49;94948.88;4715546;30;20231;-78
2022/06/04 00:32:18;;;;;;;0.50;0.50;;;20.00;86.80;;;20.21;69.89;94927.56;4717272;30;20382;-79
2022/06/04 00:34:45;;;;;;;0.40;0.40;;;19.90;86.80;;;20.22;69.25;94928.38;4685579;30;20231;-78
2022/06/04 00:37:13;;;;;;;0.40;0.40;;;19.90;87.10;;;20.23;70.07;94924.66;4693994;30;20219;-79
2022/06/04 00:39:40;;;;;;;0.40;0.40;;;19.90;87.20;;;20.23;69.67;94927.34;4698676;30;20224;-78
2022/06/04 00:42:11;;;;;;;0.40;0.40;;;19.90;87.20;;;20.22;69.96;94913.19;4698609;30;20275;-79
2022/06/04 00:45:21;;;;;;;0.50;0.50;;;19.90;87.30;;;20.23;69.19;94914.03;4692530;30;20237;-79
2022/06/04 00:47:49;;;;;;;0.40;0.40;;;19.90;87.70;;;20.22;69.37;94917.72;4717054;30;20294;-79
2022/06/04 00:50:20;;;;;;;0.50;0.50;;;19.90;87.50;;;20.22;69.89;94920.41;4701655;30;20230;-80
2022/06/04 00:52:50;;;;;;;0.45;0.45;;;19.90;87.50;;;20.22;69.78;94917.72;4697292;30;20263;-80
2022/06/04 00:55:18;;;;;;;0.40;0.40;;;19.90;87.90;;;20.21;69.24;94926.78;4671312;30;20220;-79
2022/06/04 00:58:11;;;;;;;0.40;0.40;;;19.80;87.80;;;20.22;69.75;94921.19;4697393;30;20216;-80
2022/06/04 01:00:48;;;;;;;0.60;0.60;;;19.80;87.90;;;20.18;69.60;94917.44;4701752;30;20255;-79
2022/06/04 01:03:44;;;;;;;0.40;0.40;;;19.80;87.70;;;20.18;69.65;94913.94;4700541;30;20266;-80
2022/06/04 01:06:53;;;;;;;0.40;0.40;;;19.80;88.40;;;20.17;69.82;94918.47;4684329;30;20294;-80
2022/06/04 01:09:25;;;;;;;0.40;0.40;;;19.80;88.40;;;20.19;69.59;94913.72;4710017;30;20239;-80
2022/06/04 01:12:10;;;;;;;0.40;0.40;;;19.80;88.70;;;20.13;69.48;94902.22;4698269;30;20767;-79
2022/06/04 01:14:59;;;;;;;0.40;0.40;;;19.80;88.80;;;20.20;69.78;94912.66;4699579;30;20294;-78
2022/06/04 01:17:40;;;;;;;0.40;0.40;;;19.90;89.10;;;20.22;69.97;94920.41;4697894;30;20240;-78
2022/06/04 01:20:32;;;;;;;0.40;0.40;;;19.80;89.20;;;20.23;69.62;94924.66;4715643;30;20223;-80
2022/06/04 01:23:49;;;;;;;0.50;0.50;;;19.80;89.30;;;20.21;69.71;94908.13;4696672;30;20204;-80
2022/06/04 01:26:45;;;;;;;0.40;0.40;;;19.80;89.50;;;20.22;69.90;94912.41;4698140;30;20786;-80
2022/06/04 01:29:56;;;;;;;0.40;0.40;;;19.80;89.70;;;20.20;69.75;94922.50;4686498;30;20235;-80
2022/06/04 01:32:29;;;;;;;0.40;0.40;;;19.80;89.30;;;20.22;70.59;94923.84;4713004;30;20251;-80
2022/06/04 01:35:15;;;;;;;0.50;0.50;;;19.80;89.50;;;20.22;70.41;94917.72;4707492;30;20303;-80
2022/06/04 01:38:43;;;;;;;0.40;0.40;;;19.80;89.80;;;20.18;70.05;94927.25;4699648;30;20216;-78
2022/06/04 01:41:22;;;;;;;0.40;0.40;;;19.80;89.70;;;20.20;70.54;94920.66;4715719;30;20577;-80
2022/06/04 01:43:59;;;;;;;0.40;0.40;;;19.80;89.90;;;20.22;70.58;94921.19;4717564;30;20258;-78
2022/06/04 01:46:40;;;;;;;0.50;0.50;;;19.80;89.80;;;20.23;70.82;94927.34;4713823;30;20218;-79
2022/06/04 01:49:21;;;;;;;0.40;0.40;;;19.80;90.00;;;20.21;70.73;94924.91;4690201;30;20235;-79
2022/06/04 01:51:53;;;;;;;0.40;0.40;;;19.80;90.00;;;20.21;71.08;94921.44;4715808;30;20197;-80
2022/06/04 01:54:31;;;;;;;0.40;0.40;;;19.80;90.00;;;20.21;70.91;94927.56;4704593;30;20294;-78
2022/06/04 01:57:38;;;;;;;0.40;0.40;;;19.80;90.10;;;20.21;70.43;94926.78;4699094;30;20238;-79
2022/06/04 02:00:23;;;;;;;0.47;0.47;;;19.80;90.10;;;20.18;70.41;94924.59;4685210;30;20264;-79
2022/06/04 02:03:11;;;;;;;0.45;0.45;;;19.80;90.10;;;20.19;70.45;94918.22;4691280;30;20265;-80
2022/06/04 02:06:05;;;;;;;0.40;0.40;;;19.80;90.20;;;20.19;70.25;94918.22;4720646;30;20319;-79
2022/06/04 02:08:39;;;;;;;0.40;0.40;;;19.70;90.10;;;20.19;70.77;94913.72;4716418;30;20302;-80
2022/06/04 02:11:14;;;;;;;0.40;0.40;;;19.70;90.20;;;20.18;71.37;94916.63;4711485;30;20235;-80
2022/06/04 02:13:46;;;;;;;0.40;0.40;;;19.80;90.20;;;20.18;71.05;94906.78;4714724;30;20242;-79
2022/06/04 02:16:23;;;;;;;0.40;0.40;;;19.80;90.20;;;20.17;71.31;94904.38;4700175;30;20221;-80
2022/06/04 02:18:50;;;;;;;0.40;0.40;;;19.80;90.20;;;20.18;71.21;94908.63;4715530;30;20215;-78
2022/06/04 02:21:18;;;;;;;0.30;0.30;;;19.70;90.30;;;20.18;71.53;94914.78;4724470;30;20623;-79
2022/06/04 02:23:47;;;;;;;0.40;0.40;;;19.70;90.30;;;20.17;71.05;94902.50;4718171;30;20232;-78
2022/06/04 02:26:17;;;;;;;0.50;0.50;;;19.70;90.30;;;20.18;71.32;94895.31;4693339;30;20633;-79
2022/06/04 02:28:47;;;;;;;0.40;0.40;;;19.70;90.30;;;20.17;71.49;94897.19;4701433;30;20314;-79
2022/06/04 02:31:45;;;;;;;0.40;0.40;;;19.70;90.30;;;20.17;71.10;94899.06;4688115;30;20312;-80
2022/06/04 02:34:28;;;;;;;0.43;0.43;;;19.70;90.30;;;20.11;71.20;94890.19;4714522;30;20284;-78
2022/06/04 02:37:02;;;;;;;0.40;0.40;;;19.80;90.20;;;20.00;71.38;94884.75;4700548;30;20310;-79
2022/06/04 02:39:48;;;;;;;0.40;0.40;;;19.60;90.20;;;20.03;70.70;94894.13;4701862;30;20285;-79
2022/06/04 02:42:32;;;;;;;0.40;0.40;;;19.60;90.20;;;20.02;71.10;94902.34;4715099;30;20218;-79
2022/06/04 02:45:13;;;;;;;0.40;0.40;;;19.60;90.20;;;19.97;70.95;94908.47;4701416;30;20228;-78
2022/06/04 02:48:10;;;;;;;0.40;0.40;;;19.60;90.20;;;19.96;71.22;94912.97;4716628;30;20218;-79
2022/06/04 02:50:45;;;;;;;0.50;0.50;;;19.50;90.20;;;19.90;71.55;94908.63;4725512;30;20231;-79
2022/06/04 02:53:15;;;;;;;0.50;0.50;;;19.40;90.20;;;19.88;71.16;94920.59;4715884;30;20698;-79
2022/06/04 02:55:50;;;;;;;0.45;0.45;;;19.40;90.20;;;19.82;71.40;94917.03;4717702;30;20727;-79
2022/06/04 02:58:20;;;;;;;0.40;0.40;;;19.40;90.20;;;19.81;71.42;94923.41;4711307;30;20223;-79
2022/06/04 03:00:51;;;;;;;0.52;0.52;;;19.50;90.30;;;19.76;71.44;94923.34;4686026;30;20243;-79
2022/06/04 03:03:19;;;;;;;0.40;0.40;;;19.40;90.30;;;19.76;71.54;94916.19;4685692;30;20230;-79
2022/06/04 03:05:56;;;;;;;0.50;0.50;;;19.40;90.40;;;19.73;71.24;94935.31;4698859;30;20235;-79
2022/06/04 03:08:25;;;;;;;0.40;0.40;;;19.30;90.30;;;19.72;71.65;94922.25;4714353;30;20225;-79
2022/06/04 03:10:53;;;;;;;0.50;0.50;;;19.40;90.30;;;19.70;72.10;94927.00;4701888;30;20280;-80
2022/06/04 03:13:20;;;;;;;0.32;0.32;;;19.30;90.40;;;19.68;71.77;94924.63;4717430;30;20239;-79
2022/06/04 03:15:48;;;;;;;0.50;0.50;;;19.40;90.40;;;19.65;71.83;94927.75;4702862;30;20703;-79
2022/06/04 03:18:16;;;;;;;0.50;0.50;;;19.30;90.40;;;19.65;71.85;94933.06;4705584;30;20307;-79
2022/06/04 03:20:43;;;;;;;0.50;0.50;;;19.20;90.50;;;19.62;71.78;94933.59;4700671;30;20227;-79
2022/06/04 03:23:15;;;;;;;0.30;0.30;;;19.30;90.50;;;19.60;72.51;94933.03;4686055;30;20208;-79
2022/06/04 03:25:44;;;;;;;0.45;0.45;;;19.20;90.50;;;19.60;72.22;94941.00;4705045;30;20242;-78
2022/06/04 03:28:11;;;;;;;0.50;0.50;;;19.20;90.50;;;19.58;71.84;94935.94;4699806;30;20200;-79
2022/06/04 03:30:39;;;;;;;0.40;0.40;;;19.20;90.60;;;19.59;72.04;94945.53;4701946;30;20703;-79
2022/06/04 03:33:07;;;;;;;0.43;0.43;;;19.10;90.50;;;19.59;71.96;94948.19;4708168;30;20224;-80
2022/06/04 03:35:35;;;;;;;0.50;0.50;;;19.10;90.60;;;19.59;71.96;94950.84;4716798;30;20235;-79
2022/06/04 03:38:03;;;;;;;0.40;0.40;;;19.20;90.60;;;19.57;72.42;94952.94;4706913;30;20208;-79
2022/06/04 03:40:31;;;;;;;0.47;0.47;;;19.10;90.60;;;19.54;72.31;94956.09;4710925;30;20231;-79
2022/06/04 03:42:58;;;;;;;0.45;0.45;;;19.10;90.60;;;19.53;72.25;94959.81;4721254;30;20291;-79
2022/06/04 03:45:26;;;;;;;0.40;0.40;;;19.10;90.60;;;19.49;72.31;94948.88;4716862;30;20229;-79
2022/06/04 03:47:55;;;;;;;0.50;0.50;;;19.10;90.60;;;19.52;72.35;94956.34;4699354;30;20208;-79
2022/06/04 03:50:25;;;;;;;0.50;0.50;;;19.20;90.70;;;19.50;72.65;94966.41;4701917;30;20228;-79
2022/06/04 03:52:53;;;;;;;0.40;0.40;;;19.10;90.60;;;19.48;72.53;94957.06;4667560;30;20610;-79
2022/06/04 03:55:21;;;;;;;0.40;0.40;;;19.20;90.70;;;19.47;72.62;94974.09;4695956;30;20489;-79
2022/06/04 03:57:50;;;;;;;0.50;0.50;;;19.10;90.60;;;19.47;73.00;94971.44;4711599;30;20307;-78
2022/06/04 04:00:24;;;;;;;0.43;0.43;;;19.10;90.70;;;19.48;72.73;94979.19;4694783;30;20315;-79
2022/06/04 04:02:58;;;;;;;0.50;0.50;;;19.20;90.80;;;19.50;73.11;94981.59;4681994;30;20307;-79
2022/06/04 04:05:33;;;;;;;0.40;0.40;;;19.10;90.80;;;19.51;72.75;94988.53;4683177;30;20228;-80
2022/06/04 04:08:03;;;;;;;0.50;0.50;;;19.20;90.90;;;19.49;72.53;94986.13;4694972;30;20671;-79
2022/06/04 04:10:31;;;;;;;0.50;0.50;;;19.10;90.80;;;19.51;72.84;94994.63;4730970;30;20223;-80
2022/06/04 04:12:59;;;;;;;0.47;0.47;;;19.20;90.80;;;19.48;73.03;94992.47;4717021;30;20227;-80
2022/06/04 04:15:26;;;;;;;0.40;0.40;;;19.10;90.80;;;19.51;72.89;94994.63;4720930;30;20224;-78
2022/06/04 04:17:54;;;;;;;0.43;0.43;;;19.20;90.80;;;19.50;72.75;94990.34;4687465;30;20590;-79
2022/06/04 04:20:30;;;;;;;0.50;0.50;;;19.20;90.80;;;19.51;72.83;94994.63;4684653;30;20236;-79
2022/06/04 04:22:58;;;;;;;0.50;0.50;;;19.20;90.80;;;19.51;72.98;94989.31;4684333;30;20627;-79
2022/06/04 04:25:28;;;;;;;0.50;0.50;;;19.30;90.80;;;19.54;72.59;94992.53;4698043;30;20255;-80
2022/06/04 04:27:57;;;;;;;0.45;0.45;;;19.20;90.80;;;19.54;72.47;94993.34;4685675;30;20208;-80
2022/06/04 04:30:29;;;;;;;0.40;0.40;;;19.30;90.80;;;19.52;72.75;94988.28;4684135;30;20704;-80
2022/06/04 04:32:57;;;;;;;0.40;0.40;;;19.20;90.70;;;19.55;73.20;94996.81;4697947;30;20275;-79
2022/06/04 04:35:31;;;;;;;0.40;0.40;;;19.20;90.80;;;19.55;72.58;94988.84;4698392;30;20286;-79
2022/06/04 04:37:59;;;;;;;0.50;0.50;;;19.20;90.80;;;19.55;72.75;94994.16;4698816;30;20557;-79
2022/06/04 04:40:30;;;;;;;0.43;0.43;;;19.30;90.90;;;19.58;72.74;95004.28;4684306;30;20346;-79
2022/06/04 04:42:58;;;;;;;0.50;0.50;;;19.30;91.00;;;19.58;73.10;94999.78;4699037;30;20204;-79
2022/06/04 04:45:27;;;;;;;0.30;0.30;;;19.20;91.00;;;19.59;72.76;94990.75;4698900;30;20231;-79
2022/06/04 04:47:56;;;;;;;0.40;0.40;;;19.30;91.10;;;19.65;73.19;94999.59;4698505;30;20200;-78
2022/06/04 04:50:32;;;;;;;0.40;0.40;;;19.20;91.10;;;19.65;73.08;94997.75;4676657;30;20412;-79
2022/06/04 04:53:03;;;;;;;0.50;0.50;;;19.20;91.10;;;19.70;73.46;95001.53;4684287;30;20251;-80
2022/06/04 04:55:32;;;;;;;0.57;0.57;;;19.30;91.10;;;19.73;73.10;95007.16;4693723;30;20707;-79
2022/06/04 04:58:00;;;;;;;0.40;0.40;;;19.30;91.20;;;19.70;73.21;95004.19;4730328;30;20210;-79
2022/06/04 05:00:29;;;;;;;0.50;0.50;;;19.40;91.10;;;19.73;72.81;95004.50;4715666;30;20790;-79
2022/06/04 05:02:58;;;;;;;0.40;0.40;;;19.30;91.20;;;19.70;73.00;95018.31;4711394;30;20211;-79
2022/06/04 05:05:25;;;;;;;0.40;0.40;;;19.40;91.20;;;19.75;73.09;95015.72;4683962;30;20242;-79
2022/06/04 05:07:53;;;;;;;0.50;0.50;;;19.30;91.30;;;19.79;73.47;95019.47;4696902;30;20227;-79
2022/06/04 05:10:20;;;;;;;0.50;0.50;;;19.50;91.40;;;19.84;73.84;95016.91;4683878;30;20232;-80
2022/06/04 05:12:52;;;;;;;0.40;0.40;;;19.50;91.40;;;19.88;73.26;95014.53;4683803;30;20208;-80
2022/06/04 05:15:21;;;;;;;0.40;0.40;;;19.50;91.30;;;19.89;73.61;95018.81;4694038;30;20231;-79
2022/06/04 05:17:48;;;;;;;0.40;0.40;;;19.50;91.30;;;19.92;73.78;95018.34;4698200;30;20589;-80
2022/06/04 05:20:16;;;;;;;0.40;0.40;;;19.60;91.30;;;19.96;73.31;95027.44;4683698;30;20712;-80
2022/06/04 05:22:43;;;;;;;0.40;0.40;;;19.60;91.60;;;19.97;73.88;95022.94;4703572;30;20234;-80
2022/06/04 05:25:11;;;;;;;0.40;0.40;;;19.70;91.40;;;20.03;73.48;95026.44;4704481;30;20236;-79
2022/06/04 05:27:38;;;;;;;0.40;0.40;;;19.70;91.40;;;20.04;72.94;95031.50;4698157;30;20216;-80
2022/06/04 05:30:06;;;;;;;0.50;0.50;;;19.80;91.30;;;20.08;72.39;95029.16;4683748;30;20237;-79
2022/06/04 05:32:34;;;;;;;0.50;0.50;;;19.70;91.20;;;20.08;73.01;95013.19;4696848;30;20225;-80
2022/06/04 05:35:01;;;;;;;0.50;0.50;;;19.80;91.30;;;20.17;73.54;95026.88;4712262;30;20301;-79
2022/06/04 05:37:28;;;;;;;0.70;0.70;;;19.80;91.30;;;20.19;73.06;95025.56;4715666;30;20207;-80
2022/06/04 05:40:05;;;;;;;0.40;0.40;;;19.90;91.30;;;20.23;72.95;95032.00;4715338;30;20243;-79
2022/06/04 05:42:32;;;;;;;0.40;0.40;;;19.90;91.30;;;20.27;73.25;95033.09;4700318;30;20215;-79
2022/06/04 05:45:00;;;;;;;0.40;0.40;;;19.90;91.30;;;20.30;73.32;95027.28;4715474;30;20235;-79
2022/06/04 05:47:28;;;;;;;0.43;0.43;;;20.00;91.30;;;20.39;73.82;95026.84;4715593;30;20572;-81
2022/06/04 05:49:55;;;;;;;0.50;0.50;;;20.10;91.50;;;20.48;74.17;95026.13;4700454;30;20242;-78
2022/06/04 05:52:23;;;;;;;0.40;0.40;;;20.10;91.60;;;20.53;73.84;95025.38;4681318;30;20248;-78
2022/06/04 05:54:51;;;;;;;0.50;0.50;;;20.20;91.80;;;20.69;74.12;95028.19;4701778;30;20267;-80
2022/06/04 05:57:18;;;;;;;0.40;0.40;;;20.20;91.90;;;20.77;74.61;95025.09;4683252;30;20350;-79
2022/06/04 05:59:45;;;;;;;0.40;0.40;;;20.30;91.90;;;20.85;74.32;95029.16;4697750;30;20233;-80
2022/06/04 06:02:12;;;;;;;0.50;0.50;;;20.40;91.80;;;20.90;73.76;95022.00;4711384;30;20279;-79
2022/06/04 06:04:40;;;;;;;0.40;0.40;;;20.50;91.70;;;20.99;74.18;95027.66;4729701;30;20219;-80
2022/06/04 06:07:07;;;;;;;0.52;0.52;;;20.60;91.70;;;21.06;74.01;95030.13;4716523;30;20199;-79
2022/06/04 06:09:34;;;;;;;0.40;0.40;;;20.60;91.80;;;21.15;74.27;95022.47;4715099;30;20249;-79
2022/06/04 06:12:02;;;;;;;0.40;0.40;;;20.70;91.90;;;21.26;74.49;95040.94;4700548;30;20253;-79
2022/06/04 06:14:29;;;;;;;0.50;0.50;;;20.80;91.90;;;21.30;73.76;95041.25;4689887;30;20250;-80
2022/06/04 06:16:56;;;;;;;0.50;0.50;;;20.80;91.80;;;21.37;73.76;95033.00;4697926;30;20232;-79
2022/06/04 06:19:23;;;;;;;0.40;0.40;;;21.00;91.70;;;21.47;73.97;95037.59;4697439;30;20616;-79
2022/06/04 06:21:52;;;;;;;0.50;0.50;;;21.00;91.70;;;21.53;73.72;95042.72;4709001;30;20267;-79
2022/06/04 06:24:23;;;;;;;0.40;0.40;;;21.10;91.60;;;21.62;73.70;95047.59;4715199;30;20264;-80
2022/06/04 06:26:54;;;;;;;0.40;0.40;;;21.10;91.60;;;21.70;73.73;95058.59;4716370;30;20293;-79
2022/06/04 06:29:26;;;;;;;0.40;0.40;;;21.20;91.50;;;21.73;73.24;95059.97;4717714;30;20357;-79
2022/06/04 06:31:55;;;;;;;0.50;0.50;;;21.30;91.60;;;21.75;72.92;95060.47;4719411;30;20576;-80
2022/06/04 06:34:24;;;;;;;0.47;0.47;;;21.30;91.20;;;21.78;73.36;95059.97;4717964;30;20261;-79
2022/06/04 06:36:51;;;;;;;0.30;0.30;;;21.40;91.20;;;21.77;72.57;95049.56;4716866;30;20225;-80
2022/06/04 06:39:19;;;;;;;0.40;0.40;;;21.40;91.10;;;21.84;72.97;95069.63;4724385;30;20231;-79
2022/06/04 06:41:46;;;;;;;0.40;0.40;;;21.40;91.10;;;21.88;73.22;95073.38;4688777;30;20298;-78
2022/06/04 06:44:14;;;;;;;0.40;0.40;;;21.40;91.10;;;21.93;73.37;95061.13;4698740;30;20231;-79
2022/06/04 06:46:46;;;;;;;0.32;0.32;;;21.50;91.20;;;21.98;73.15;95061.94;4696149;30;20293;-80
2022/06/04 06:49:21;;;;;;;0.43;0.43;;;21.50;91.20;;;22.04;73.44;95058.22;4701082;30;20255;-79
2022/06/04 06:51:56;;;;;;;0.30;0.30;;;21.60;91.30;;;22.13;73.49;95060.38;4700754;30;20663;-79
2022/06/04 06:54:27;;;;;;;0.40;0.40;;;21.60;91.30;;;22.21;73.77;95063.34;4700750;30;20260;-80
2022/06/04 06:56:56;;;;;;;0.40;0.40;;;21.70;91.40;;;22.30;73.99;95065.53;4698978;30;20217;-79
2022/06/04 06:59:27;;;;;;;0.40;0.40;;;21.80;91.60;;;22.48;74.75;95064.28;4700341;30;20230;-79
2022/06/04 07:01:56;;;;;;;0.30;0.30;;;21.90;91.90;;;22.67;74.56;95072.63;4715757;30;20221;-80
2022/06/04 07:04:25;;;;;;;0.30;0.30;;;22.10;92.00;;;22.88;75.29;95061.97;4716123;30;20571;-79
2022/06/04 07:07:00;;;;;;;0.30;0.30;;;22.30;92.30;;;23.12;75.02;95070.25;4702079;30;20219;-80
2022/06/04 07:09:37;;;;;;;0.40;0.40;;;22.50;92.20;;;23.34;74.26;95073.50;4712766;30;20614;-80
2022/06/04 07:12:06;;;;;;;0.30;0.30;;;22.80;91.90;;;23.49;73.01;95059.28;4700348;30;20196;-79
2022/06/04 07:14:33;;;;;;;0.50;0.50;;;23.00;91.60;;;23.57;70.78;95065.16;4695658;30;20266;-80
2022/06/04 07:17:03;;;;;;;0.30;0.30;;;23.10;90.70;;;23.75;71.69;95077.19;4732090;30;20204;-80
2022/06/04 07:19:30;;;;;;;0.30;0.30;;;23.30;90.80;;;23.86;71.53;95075.28;4706783;30;20234;-80
2022/06/04 07:21:57;;;;;;;0.55;0.55;;;23.50;90.80;;;23.93;69.75;95079.31;4717554;30;20277;-80
2022/06/04 07:24:25;;;;;;;0.65;0.65;;;23.50;90.00;;;23.92;67.83;95071.53;4726322;30;20236;-79
2022/06/04 07:26:52;;;;;;;0.30;0.30;;;23.60;89.00;;;23.94;69.35;95067.53;4686622;30;20227;-80
2022/06/04 07:29:20;;;;;;;0.40;0.40;;;23.60;88.40;;;23.96;69.29;95061.88;4723099;30;20588;-79
2022/06/04 07:31:50;;;;;;;0.40;0.40;;;23.70;88.60;;;23.98;68.82;95065.09;4692657;30;20314;-78
2022/06/04 07:34:17;;;;;;;0.50;0.50;;;23.70;87.90;;;23.95;67.95;95058.41;4702053;30;20645;-79
2022/06/04 07:36:52;;;;;;;0.30;0.30;;;23.70;87.40;;;23.96;67.95;95045.81;4712324;30;20208;-79
2022/06/04 07:39:19;;;;;;;0.38;0.38;;;23.80;86.90;;;23.97;68.02;95044.75;4694304;30;20235;-79
2022/06/04 07:41:52;;;;;;;0.35;0.35;;;23.80;86.80;;;23.91;66.25;95060.03;4685866;30;20277;-79
2022/06/04 07:44:23;;;;;;;0.30;0.30;;;23.80;86.50;;;23.91;64.11;95056.53;4671214;30;20448;-79
2022/06/04 07:46:52;;;;;;;0.38;0.38;;;23.80;84.40;;;23.87;63.78;95068.88;4698659;30;20613;-79
2022/06/04 07:49:21;;;;;;;0.30;0.30;;;23.80;83.90;;;23.81;64.01;95055.50;4728621;30;20320;-79
2022/06/04 07:51:49;;;;;;;0.40;0.40;;;23.80;83.10;;;23.85;65.19;95052.25;4714357;30;20294;-79
2022/06/04 07:54:18;;;;;;;0.22;0.22;;;23.70;83.60;;;23.83;65.12;95050.66;4714526;30;20248;-79
2022/06/04 07:56:45;;;;;;;0.30;0.30;;;23.70;83.30;;;23.90;65.99;95050.38;4715098;30;20204;-79
2022/06/04 07:59:16;;;;;;;0.35;0.35;;;23.70;84.40;;;23.93;65.63;95057.09;4699920;30;20737;-79
2022/06/04 08:01:45;;;;;;;0.30;0.30;;;23.80;83.70;;;23.96;64.91;95059.22;4689121;30;20226;-79
2022/06/04 08:04:13;;;;;;;0.40;0.40;;;23.80;83.10;;;23.90;64.31;95036.16;4688593;30;20241;-79
2022/06/04 08:06:41;;;;;;;0.30;0.30;;;23.80;82.50;;;23.97;64.33;95048.25;4699320;30;20216;-79
2022/06/04 08:09:08;;;;;;;0.40;0.40;;;23.80;82.70;;;24.05;65.25;95040.72;4698881;30;20227;-80
2022/06/04 08:11:36;;;;;;;0.30;0.30;;;23.80;83.10;;;24.13;65.61;95045.47;4699328;30;20263;-79
2022/06/04 08:14:19;;;;;;;0.40;0.40;;;23.90;83.50;;;24.19;65.01;95039.03;4692245;30;20662;-79
2022/06/04 08:16:59;;;;;;;0.60;0.60;;;23.90;83.40;;;24.25;64.71;95042.50;4715176;30;20324;-80
2022/06/04 08:19:30;;;;;;;0.25;0.25;;;24.10;83.00;;;24.34;65.08;95042.72;4712689;30;20250;-79
2022/06/04 08:21:58;;;;;;;0.30;0.30;;;24.10;83.40;;;24.40;64.64;95042.41;4712046;30;20595;-79
2022/06/04 08:24:25;;;;;;;0.40;0.40;;;24.20;82.70;;;24.46;64.61;95044.00;4698975;30;20271;-79
2022/06/04 08:26:58;;;;;;;0.30;0.30;;;24.20;82.60;;;24.55;64.65;95046.09;4694004;30;20240;-79
2022/06/04 08:29:33;;;;;;;0.47;0.47;;;24.30;82.80;;;24.61;64.12;95058.41;4704465;30;20306;-79
2022/06/04 08:32:08;;;;;;;0.40;0.40;;;24.40;82.00;;;24.62;62.82;95063.47;4702017;30;20299;-80
2022/06/04 08:34:36;;;;;;;0.25;0.25;;;24.50;81.30;;;24.66;62.73;95062.94;4695367;30;20708;-81
2022/06/04 08:37:05;;;;;;;0.30;0.30;;;24.50;80.80;;;24.68;62.49;95064.28;4671988;30;20651;-81
2022/06/04 08:39:34;;;;;;;0.40;0.40;;;24.50;80.80;;;24.70;61.95;95070.16;4684209;30;20324;-80
2022/06/04 08:42:24;;;;;;;0.30;0.30;;;24.60;80.30;;;24.71;61.21;95071.75;4702200;30;20236;-80
2022/06/04 08:44:58;;;;;;;0.30;0.30;;;24.60;79.40;;;24.78;62.23;95072.25;4700844;30;20795;-80
2022/06/04 08:47:36;;;;;;;0.35;0.35;;;24.60;80.10;;;24.87;62.75;95072.47;4696424;30;20312;-79
2022/06/04 08:50:09;;;;;;;0.40;0.40;;;24.70;80.80;;;24.96;62.34;95061.94;4698168;30;20240;-81
2022/06/04 08:52:52;;;;;;;0.30;0.30;;;24.80;80.30;;;25.08;62.77;95072.31;4698748;30;20219;-80
2022/06/04 08:59:06;;;;;;;0.30;0.30;;;24.90;80.20;;;25.24;62.36;95079.19;4700222;30;20284;-80
2022/06/04 09:01:45;;;;;;;0.30;0.30;;;25.10;80.50;;;25.29;61.46;95064.09;4698775;30;20233;-80
2022/06/04 09:04:41;;;;;;;0.30;0.30;;;25.10;79.30;;;25.34;61.03;95072.13;4682836;30;20251;-81
2022/06/04 09:07:37;;;;;;;0.30;0.30;;;25.20;79.60;;;25.32;60.95;95075.09;4698389;30;20706;-81
2022/06/04 09:10:15;;;;;;;0.40;0.40;;;25.20;78.60;;;25.32;60.78;95074.31;4698104;30;20732;-81
2022/06/04 09:13:02;;;;;;;0.30;0.30;;;25.20;78.40;;;25.32;60.68;95075.09;4698154;30;20222;-80
2022/06/04 09:15:49;;;;;;;0.40;0.40;;;25.20;78.30;;;25.34;59.69;95074.78;4697620;30;20264;-80
2022/06/04 09:18:24;;;;;;;0.28;0.28;;;25.30;77.40;;;25.38;59.51;95078.56;4684723;30;20310;-82
2022/06/04 09:20:56;;;;;;;0.50;0.50;;;25.30;77.60;;;25.43;59.50;95083.88;4713188;30;20233;-82
2022/06/04 09:23:43;;;;;;;0.55;0.55;;;25.30;77.40;;;25.49;60.58;95079.28;4696873;30;20211;-81
2022/06/04 09:26:13;;;;;;;0.30;0.30;;;25.30;77.60;;;25.58;59.04;95072.19;4701073;30;20734;-80
2022/06/04 09:29:13;;;;;;;0.30;0.30;;;25.40;77.10;;;25.71;60.38;95076.13;4700916;30;20214;-81
2022/06/04 09:32:12;;;;;;;0.35;0.35;;;25.50;78.60;;;25.83;58.59;95073.03;4698475;30;20309;-82
2022/06/04 09:34:46;;;;;;;0.28;0.28;;;25.60;76.40;;;25.87;58.09;95090.19;4684418;30;20248;-81
2022/06/04 09:37:14;;;;;;;0.40;0.40;;;25.70;76.90;;;25.88;57.57;95078.38;4698028;30;20218;-81
2022/06/04 09:39:45;;;;;;;0.50;0.50;;;25.70;75.50;;;25.84;54.01;95088.88;4698792;30;20241;-80
2022/06/04 09:42:13;;;;;;;0.40;0.40;;;25.70;73.60;;;25.88;56.20;95083.75;4682416;30;20619;-82
2022/06/04 09:45:01;;;;;;;0.40;0.40;;;25.70;74.70;;;25.92;57.50;95087.44;4692693;30;20235;-80
2022/06/04 09:47:41;;;;;;;0.30;0.30;;;25.80;75.60;;;26.05;56.96;95097.50;4696490;30;20304;-81
2022/06/04 09:50:29;;;;;;;0.32;0.32;;;25.80;75.00;;;26.09;55.03;95103.16;4689537;30;20245;-82
2022/06/04 09:53:03;;;;;;;0.30;0.30;;;25.90;74.50;;;26.18;54.69;95108.69;4705536;30;20271;-80
2022/06/04 09:55:33;;;;;;;0.30;0.30;;;26.00;73.60;;;26.20;55.03;95085.81;4719656;30;20689;-82
2022/06/04 09:58:17;;;;;;;0.30;0.30;;;26.10;73.30;;;26.39;54.55;95090.44;4705526;30;20214;-82
2022/06/04 10:00:59;;;;;;;0.40;0.40;;;26.20;73.20;;;26.51;55.78;95098.09;4711627;30;20255;-82
2022/06/04 10:03:29;;;;;;;0.30;0.30;;;26.30;73.90;;;26.67;56.06;95110.25;4697101;30;20220;-81
2022/06/04 10:06:04;;;;;;;0.30;0.30;;;26.40;74.40;;;26.87;55.67;95096.81;4673532;30;20240;-81
2022/06/04 10:09:55;;;;;;;0.40;0.40;;;26.50;73.60;;;27.03;55.56;95095.53;4692404;30;20287;-80
2022/06/04 10:11:23;;;;;;;0.20;0.20;;;26.70;74.10;;;27.27;55.26;95089.22;4695467;30;20420;-81
2022/06/04 10:13:55;;;;;;;0.30;0.30;;;26.90;72.70;;;27.44;53.25;95094.91;4677824;30;20219;-82
2022/06/04 10:16:37;;;;;;;0.20;0.20;;;27.10;71.60;;;27.59;53.85;95093.84;4681368;30;20222;-80
2022/06/04 10:19:18;;;;;;;0.30;0.30;;;27.20;72.30;;;27.72;53.78;95084.22;4717278;30;20208;-81
2022/06/04 10:21:49;;;;;;;0.30;0.30;;;27.40;72.30;;;27.81;53.96;95087.00;4690017;30;20220;-81
2022/06/04 10:24:25;;;;;;;0.30;0.30;;;27.60;72.20;;;27.87;54.04;95080.44;4697048;30;20709;-80
2022/06/04 10:27:52;;;;;;;0.30;0.30;;;27.60;71.50;;;27.94;54.91;95083.53;4692167;30;20202;-81
2022/06/04 10:30:27;;;;;;;0.30;0.30;;;27.70;71.80;;;28.08;53.26;95085.47;4692655;30;20604;-81
2022/06/04 10:33:35;;;;;;;0.20;0.20;;;27.80;71.20;;;28.23;53.88;95077.06;4696270;30;20204;-81
2022/06/04 10:36:23;;;;;;;0.30;0.30;;;28.00;72.20;;;28.41;54.11;95079.94;4686745;30;21553;-81
2022/06/04 10:39:23;;;;;;;0.30;0.30;;;28.10;72.20;;;28.59;54.51;95075.53;4694152;30;20208;-80
2022/06/04 10:42:15;;;;;;;0.30;0.30;;;28.30;72.30;;;28.79;53.46;95074.31;4691095;30;20219;-81
2022/06/04 10:45:11;;;;;;;0.20;0.20;;;28.40;71.00;;;29.01;54.21;95072.75;4690319;30;20245;-80
2022/06/04 10:47:50;;;;;;;0.28;0.28;;;28.60;72.20;;;29.15;50.63;95062.69;4699105;30;20729;-81
2022/06/04 10:50:28;;;;;;;0.30;0.30;;;28.80;69.60;;;29.27;51.87;95067.50;4679001;30;20323;-81
2022/06/04 10:53:17;;;;;;;0.20;0.20;;;28.90;69.70;;;29.39;52.55;95062.41;4696673;30;20213;-81
2022/06/04 10:55:55;;;;;;;0.30;0.30;;;29.10;69.80;;;29.59;52.10;95065.69;4663920;30;20251;-80
2022/06/04 10:58:46;;;;;;;0.30;0.30;;;29.30;69.80;;;29.73;51.90;95059.41;4691270;30;20244;-81
2022/06/04 11:01:26;;;;;;;0.30;0.30;;;29.40;69.60;;;29.86;51.24;95047.69;4682091;30;21494;-80